createdAt,value
2018-07-07T00:00:30.486Z,47.49
2018-07-07T00:01:30.479Z,47.49
2018-07-07T00:02:30.466Z,47.39
2018-07-07T00:03:30.456Z,47.49
2018-07-07T00:04:30.436Z,47.58
2018-07-07T00:05:30.427Z,47.87
2018-07-07T00:06:30.417Z,47.97
2018-07-07T00:07:30.408Z,47.68
2018-07-07T00:08:30.385Z,48.07
2018-07-07T00:09:30.379Z,47.87
2018-07-07T00:10:30.361Z,47.77
2018-07-07T00:11:30.357Z,48.16
2018-07-07T00:12:30.345Z,47.97
2018-07-07T00:13:30.326Z,47.87
2018-07-07T00:14:30.312Z,47.77
2018-07-07T00:15:30.305Z,47.49
2018-07-07T00:16:30.299Z,48.07
2018-07-07T00:17:30.280Z,48.07
2018-07-07T00:18:30.269Z,47.77
2018-07-07T00:19:30.251Z,48.16
2018-07-07T00:20:30.238Z,48.25
2018-07-07T00:21:30.225Z,48.54
2018-07-07T00:22:30.281Z,48.93
2018-07-07T00:23:30.203Z,49.02
2018-07-07T00:24:30.186Z,48.64
2018-07-07T00:25:30.176Z,48.64
2018-07-07T00:26:30.164Z,49.02
2018-07-07T00:27:30.157Z,48.64
2018-07-07T00:28:30.146Z,48.93
2018-07-07T00:29:30.125Z,49.19
2018-07-07T00:30:30.118Z,49.48
2018-07-07T00:31:30.100Z,49.96
2018-07-07T00:32:30.085Z,49.87
2018-07-07T00:33:30.074Z,51.02
2018-07-07T00:34:30.076Z,50.73
2018-07-07T00:35:30.057Z,51.21
2018-07-07T00:36:30.037Z,50.82
2018-07-07T00:37:30.026Z,51.50
2018-07-07T00:38:30.017Z,51.40
2018-07-07T00:39:29.997Z,51.40
2018-07-07T00:40:29.986Z,52.17
2018-07-07T00:41:29.975Z,51.88
2018-07-07T00:42:29.966Z,52.36
2018-07-07T00:43:29.957Z,52.26
2018-07-07T00:44:29.934Z,52.36
2018-07-07T00:45:29.927Z,52.65
2018-07-07T00:46:29.915Z,52.75
2018-07-07T00:47:29.902Z,53.01
2018-07-07T00:48:29.886Z,53.32
2018-07-07T00:49:29.874Z,53.52
2018-07-07T00:50:29.862Z,54.38
2018-07-07T00:51:29.850Z,54.35
2018-07-07T00:52:29.836Z,53.90
2018-07-07T00:53:29.828Z,54.28
2018-07-07T00:54:29.886Z,54.38
2018-07-07T00:55:29.797Z,54.45
2018-07-07T00:56:29.790Z,54.55
2018-07-07T00:57:29.778Z,54.77
2018-07-07T00:58:29.760Z,54.86
2018-07-07T00:59:29.750Z,54.96
2018-07-07T01:00:29.737Z,55.05
2018-07-07T01:01:29.719Z,55.44
2018-07-07T01:02:29.707Z,54.96
2018-07-07T01:03:29.697Z,55.24
2018-07-07T01:04:29.686Z,55.63
2018-07-07T01:05:29.670Z,56.08
2018-07-07T01:06:29.658Z,55.89
2018-07-07T01:07:29.646Z,55.79
2018-07-07T01:08:29.636Z,56.08
2018-07-07T01:09:29.706Z,56.18
2018-07-07T01:10:29.607Z,56.95
2018-07-07T01:11:29.592Z,56.56
2018-07-07T01:12:29.585Z,56.76
2018-07-07T01:13:29.566Z,56.66
2018-07-07T01:14:29.553Z,56.76
2018-07-07T01:15:29.559Z,56.66
2018-07-07T01:16:29.533Z,56.66
2018-07-07T01:17:29.517Z,56.66
2018-07-07T01:18:29.505Z,57.04
2018-07-07T01:19:29.492Z,56.76
2018-07-07T01:20:29.489Z,56.46
2018-07-07T01:21:29.467Z,57.14
2018-07-07T01:22:29.451Z,57.43
2018-07-07T01:23:29.436Z,57.23
2018-07-07T01:24:29.426Z,57.43
2018-07-07T01:25:29.415Z,57.43
2018-07-07T01:26:29.398Z,57.71
2018-07-07T01:27:29.385Z,57.43
2018-07-07T01:28:29.371Z,57.43
2018-07-07T01:29:29.361Z,57.71
2018-07-07T01:30:29.356Z,57.81
2018-07-07T01:31:29.336Z,57.71
2018-07-07T01:32:29.320Z,57.43
2018-07-07T01:33:29.305Z,57.52
2018-07-07T01:34:29.308Z,57.90
2018-07-07T01:35:29.286Z,58.20
2018-07-07T01:36:29.276Z,58.00
2018-07-07T01:37:29.255Z,58.10
2018-07-07T01:38:29.246Z,58.39
2018-07-07T01:39:29.238Z,58.87
2018-07-07T01:40:29.226Z,58.87
2018-07-07T01:41:29.207Z,58.39
2018-07-07T01:42:29.197Z,58.67
2018-07-07T01:43:29.187Z,58.58
2018-07-07T01:44:29.167Z,58.67
2018-07-07T01:45:29.152Z,58.67
2018-07-07T01:46:29.140Z,58.39
2018-07-07T01:47:29.127Z,58.67
2018-07-07T01:48:29.114Z,58.29
2018-07-07T01:49:29.104Z,58.29
2018-07-07T01:50:29.096Z,58.39
2018-07-07T01:51:29.077Z,58.77
2018-07-07T01:52:29.068Z,58.39
2018-07-07T01:53:29.053Z,58.67
2018-07-07T01:54:29.037Z,58.29
2018-07-07T01:55:29.028Z,58.39
2018-07-07T01:56:29.017Z,58.87
2018-07-07T01:57:28.995Z,58.67
2018-07-07T01:58:28.986Z,58.77
2018-07-07T01:59:28.975Z,58.96
2018-07-07T02:00:28.984Z,58.96
2018-07-07T02:01:28.946Z,58.96
2018-07-07T02:02:28.936Z,59.16
2018-07-07T02:03:28.929Z,59.92
2018-07-07T02:04:28.906Z,59.92
2018-07-07T02:05:28.899Z,59.73
2018-07-07T02:06:28.885Z,60.02
2018-07-07T02:07:28.924Z,59.92
2018-07-07T02:08:28.857Z,59.34
2018-07-07T02:09:28.840Z,60.02
2018-07-07T02:10:28.852Z,60.21
2018-07-07T02:11:28.966Z,60.11
2018-07-07T02:12:28.799Z,60.50
2018-07-07T02:13:28.877Z,60.21
2018-07-07T02:14:28.775Z,60.88
2018-07-07T02:15:28.767Z,60.88
2018-07-07T02:16:28.757Z,61.65
2018-07-07T02:17:28.743Z,61.94
2018-07-07T02:18:28.727Z,62.42
2018-07-07T02:19:28.710Z,61.84
2018-07-07T02:20:28.695Z,62.23
2018-07-07T02:21:28.686Z,62.10
2018-07-07T02:22:28.672Z,62.52
2018-07-07T02:23:28.661Z,62.90
2018-07-07T02:24:28.647Z,62.77
2018-07-07T02:25:28.634Z,62.52
2018-07-07T02:26:28.616Z,62.39
2018-07-07T02:27:28.607Z,62.52
2018-07-07T02:28:28.595Z,62.61
2018-07-07T02:29:28.581Z,63.28
2018-07-07T02:30:28.566Z,63.35
2018-07-07T02:31:28.556Z,63.38
2018-07-07T02:32:28.547Z,63.09
2018-07-07T02:33:28.525Z,63.09
2018-07-07T02:34:28.517Z,63.19
2018-07-07T02:35:28.500Z,63.48
2018-07-07T02:36:28.488Z,64.05
2018-07-07T02:37:28.474Z,64.15
2018-07-07T02:38:28.464Z,64.22
2018-07-07T02:39:28.447Z,64.12
2018-07-07T02:40:28.436Z,64.31
2018-07-07T02:41:28.431Z,64.79
2018-07-07T02:42:28.407Z,64.89
2018-07-07T02:43:28.397Z,64.59
2018-07-07T02:44:28.381Z,64.82
2018-07-07T02:45:28.368Z,64.89
2018-07-07T02:46:28.361Z,64.79
2018-07-07T02:47:28.345Z,64.98
2018-07-07T02:48:28.328Z,66.03
2018-07-07T02:49:28.317Z,65.56
2018-07-07T02:50:28.305Z,65.94
2018-07-07T02:51:28.292Z,66.23
2018-07-07T02:52:28.284Z,66.23
2018-07-07T02:53:28.266Z,66.90
2018-07-07T02:54:28.255Z,67.09
2018-07-07T02:55:28.238Z,67.19
2018-07-07T02:56:28.225Z,67.19
2018-07-07T02:57:28.208Z,67.47
2018-07-07T02:58:28.197Z,67.76
2018-07-07T02:59:28.186Z,67.96
2018-07-07T03:00:28.177Z,67.47
2018-07-07T03:01:28.160Z,67.63
2018-07-07T03:02:28.147Z,67.54
2018-07-07T03:03:28.143Z,68.05
2018-07-07T03:04:28.117Z,68.24
2018-07-07T03:05:28.106Z,68.53
2018-07-07T03:06:28.099Z,67.86
2018-07-07T03:07:28.080Z,67.76
2018-07-07T03:08:28.068Z,67.76
2018-07-07T03:09:28.058Z,67.96
2018-07-07T03:10:28.044Z,67.76
2018-07-07T03:11:28.029Z,68.24
2018-07-07T03:12:28.011Z,68.44
2018-07-07T03:13:28.003Z,68.44
2018-07-07T03:14:27.984Z,68.15
2018-07-07T03:15:27.973Z,68.53
2018-07-07T03:16:27.957Z,68.05
2018-07-07T03:17:27.992Z,68.24
2018-07-07T03:18:27.930Z,68.24
2018-07-07T03:19:27.915Z,68.73
2018-07-07T03:20:27.905Z,68.63
2018-07-07T03:21:27.898Z,68.82
2018-07-07T03:22:27.883Z,69.84
2018-07-07T03:23:27.866Z,69.36
2018-07-07T03:24:27.855Z,69.46
2018-07-07T03:25:27.835Z,69.84
2018-07-07T03:26:27.830Z,69.84
2018-07-07T03:27:27.813Z,69.65
2018-07-07T03:28:27.966Z,70.32
2018-07-07T03:29:27.787Z,70.36
2018-07-07T03:30:27.778Z,70.23
2018-07-07T03:31:27.757Z,70.51
2018-07-07T03:32:27.746Z,70.51
2018-07-07T03:33:27.737Z,70.80
2018-07-07T03:34:27.717Z,70.90
2018-07-07T03:35:27.707Z,71.37
2018-07-07T03:36:27.740Z,71.37
2018-07-07T03:37:27.676Z,72.24
2018-07-07T03:38:27.717Z,71.76
2018-07-07T03:39:27.646Z,71.95
2018-07-07T03:40:27.636Z,71.76
2018-07-07T03:41:27.627Z,72.24
2018-07-07T03:42:27.756Z,72.05
2018-07-07T03:43:27.593Z,72.14
2018-07-07T03:44:27.636Z,72.53
2018-07-07T03:45:27.567Z,72.33
2018-07-07T03:46:27.656Z,73.30
2018-07-07T03:47:27.549Z,73.00
2018-07-07T03:48:27.526Z,73.49
2018-07-07T03:49:27.607Z,73.87
2018-07-07T03:50:27.518Z,74.44
2018-07-07T03:51:27.500Z,73.97
2018-07-07T03:52:27.520Z,74.26
2018-07-07T03:53:27.469Z,74.16
2018-07-07T03:54:27.495Z,74.64
2018-07-07T03:55:27.437Z,74.35
2018-07-07T03:56:27.492Z,74.44
2018-07-07T03:57:27.411Z,74.16
2018-07-07T03:58:27.396Z,74.44
2018-07-07T03:59:27.378Z,75.02
2018-07-07T04:00:27.369Z,74.26
2018-07-07T04:01:27.353Z,74.73
2018-07-07T04:02:27.338Z,75.12
2018-07-07T04:03:27.325Z,75.89
2018-07-07T04:04:27.311Z,75.70
2018-07-07T04:05:27.298Z,75.79
2018-07-07T04:06:27.289Z,75.40
2018-07-07T04:07:27.320Z,75.50
2018-07-07T04:08:27.256Z,76.37
2018-07-07T04:09:27.244Z,76.65
2018-07-07T04:10:27.229Z,76.17
2018-07-07T04:11:27.224Z,76.75
2018-07-07T04:12:27.207Z,76.84
2018-07-07T04:13:27.188Z,76.37
2018-07-07T04:14:27.174Z,76.65
2018-07-07T04:15:27.161Z,77.23
2018-07-07T04:16:27.148Z,76.65
2018-07-07T04:17:27.137Z,77.23
2018-07-07T04:18:27.117Z,76.75
2018-07-07T04:19:27.104Z,77.04
2018-07-07T04:20:27.098Z,77.04
2018-07-07T04:21:27.089Z,76.94
2018-07-07T04:22:27.064Z,77.23
2018-07-07T04:23:27.049Z,76.94
2018-07-07T04:24:27.041Z,77.04
2018-07-07T04:25:27.025Z,76.94
2018-07-07T04:26:27.012Z,76.84
2018-07-07T04:27:26.998Z,77.33
2018-07-07T04:28:26.980Z,77.42
2018-07-07T04:29:26.970Z,77.13
2018-07-07T04:30:26.954Z,77.42
2018-07-07T04:31:26.939Z,77.33
2018-07-07T04:32:26.928Z,77.61
2018-07-07T04:33:26.915Z,77.33
2018-07-07T04:34:26.901Z,77.33
2018-07-07T04:35:26.887Z,77.33
2018-07-07T04:36:26.877Z,77.33
2018-07-07T04:37:26.858Z,77.51
2018-07-07T04:38:26.845Z,77.13
2018-07-07T04:39:26.832Z,76.94
2018-07-07T04:41:26.806Z,76.94
2018-07-07T04:42:26.798Z,77.04
2018-07-07T04:43:26.781Z,76.84
2018-07-07T04:44:26.764Z,77.33
2018-07-07T04:45:26.750Z,77.13
2018-07-07T04:46:26.738Z,76.94
2018-07-07T04:47:26.734Z,77.42
2018-07-07T04:48:26.711Z,77.33
2018-07-07T04:49:26.698Z,76.94
2018-07-07T04:50:26.689Z,77.61
2018-07-07T04:51:26.676Z,77.04
2018-07-07T04:52:26.719Z,77.33
2018-07-07T04:53:26.645Z,77.51
2018-07-07T04:54:26.632Z,77.61
2018-07-07T04:55:26.618Z,77.23
2018-07-07T04:56:26.604Z,77.71
2018-07-07T04:57:26.629Z,77.71
2018-07-07T04:58:26.574Z,77.17
2018-07-07T04:59:26.623Z,77.65
2018-07-07T05:00:26.546Z,77.84
2018-07-07T05:01:26.536Z,77.46
2018-07-07T05:02:26.527Z,77.36
2018-07-07T05:03:26.514Z,77.26
2018-07-07T05:04:26.547Z,77.75
2018-07-07T05:05:26.482Z,77.65
2018-07-07T05:06:26.465Z,78.00
2018-07-07T05:07:26.604Z,78.57
2018-07-07T05:08:26.445Z,78.67
2018-07-07T05:09:26.582Z,79.44
2018-07-07T05:10:26.412Z,78.96
2018-07-07T05:11:26.412Z,79.24
2018-07-07T05:12:26.387Z,78.90
2018-07-07T05:13:26.377Z,79.24
2018-07-07T05:14:26.358Z,79.05
2018-07-07T05:15:26.439Z,79.14
2018-07-07T05:16:26.332Z,79.34
2018-07-07T05:17:26.329Z,79.19
2018-07-07T05:18:26.307Z,78.42
2018-07-07T05:19:26.295Z,78.42
2018-07-07T05:20:26.279Z,78.52
2018-07-07T05:21:26.272Z,78.61
2018-07-07T05:22:26.253Z,78.61
2018-07-07T05:23:26.241Z,78.70
2018-07-07T05:24:26.224Z,78.80
2018-07-07T05:25:26.261Z,79.09
2018-07-07T05:26:26.204Z,79.38
2018-07-07T05:27:26.237Z,80.05
2018-07-07T05:28:26.188Z,79.96
2018-07-07T05:29:26.158Z,79.76
2018-07-07T05:30:26.147Z,80.34
2018-07-07T05:31:26.138Z,81.01
2018-07-07T05:32:26.116Z,80.73
2018-07-07T05:33:26.108Z,81.49
2018-07-07T05:34:26.097Z,80.63
2018-07-07T05:35:26.077Z,80.63
2018-07-07T05:36:26.065Z,81.30
2018-07-07T05:37:26.053Z,80.15
2018-07-07T05:38:26.040Z,81.01
2018-07-07T05:39:26.027Z,80.47
2018-07-07T05:40:26.020Z,80.53
2018-07-07T05:41:25.999Z,80.15
2018-07-07T05:42:25.985Z,80.91
2018-07-07T05:43:25.972Z,81.59
2018-07-07T05:44:25.961Z,82.16
2018-07-07T05:45:25.951Z,82.35
2018-07-07T05:46:25.938Z,82.74
2018-07-07T05:47:25.927Z,83.31
2018-07-07T05:48:25.905Z,83.12
2018-07-07T05:49:25.897Z,82.45
2018-07-07T05:50:25.884Z,83.60
2018-07-07T05:51:25.868Z,84.47
2018-07-07T05:52:25.858Z,85.19
2018-07-07T05:53:25.840Z,85.96
2018-07-07T05:54:25.827Z,86.15
2018-07-07T05:55:25.816Z,86.38
2018-07-07T05:56:25.802Z,85.81
2018-07-07T05:57:25.804Z,86.00
2018-07-07T05:58:25.776Z,86.38
2018-07-07T05:59:25.761Z,86.54
2018-07-07T06:00:25.754Z,87.01
2018-07-07T06:01:25.736Z,87.30
2018-07-07T06:02:25.724Z,86.63
2018-07-07T06:03:25.709Z,87.59
2018-07-07T06:04:25.697Z,87.30
2018-07-07T06:05:25.682Z,87.11
2018-07-07T06:06:25.667Z,87.05
2018-07-07T06:07:25.656Z,86.87
2018-07-07T06:08:25.647Z,86.68
2018-07-07T06:09:25.627Z,86.77
2018-07-07T06:10:25.616Z,86.00
2018-07-07T06:11:25.609Z,85.57
2018-07-07T06:12:25.589Z,85.75
2018-07-07T06:13:25.576Z,86.24
2018-07-07T06:14:25.644Z,84.80
2018-07-07T06:15:25.548Z,83.64
2018-07-07T06:16:25.537Z,83.45
2018-07-07T06:17:25.526Z,83.26
2018-07-07T06:18:25.594Z,83.20
2018-07-07T06:19:25.517Z,82.78
2018-07-07T06:20:25.500Z,82.63
2018-07-07T06:21:25.470Z,82.73
2018-07-07T06:22:25.464Z,82.73
2018-07-07T06:23:25.445Z,82.87
2018-07-07T06:24:25.441Z,83.01
2018-07-07T06:25:25.417Z,82.34
2018-07-07T06:26:25.428Z,82.73
2018-07-07T06:27:25.398Z,82.43
2018-07-07T06:28:25.389Z,82.82
2018-07-07T06:29:25.374Z,82.53
2018-07-07T06:30:25.357Z,82.57
2018-07-07T06:31:25.340Z,81.28
2018-07-07T06:32:25.327Z,80.51
2018-07-07T06:33:25.315Z,80.71
2018-07-07T06:34:25.461Z,80.42
2018-07-07T06:35:25.289Z,79.30
2018-07-07T06:36:25.327Z,79.21
2018-07-07T06:37:25.313Z,79.40
2018-07-07T06:38:25.267Z,79.21
2018-07-07T06:39:25.252Z,79.21
2018-07-07T06:40:25.226Z,78.83
2018-07-07T06:41:25.212Z,78.83
2018-07-07T06:42:25.252Z,77.58
2018-07-07T06:43:25.187Z,77.19
2018-07-07T06:44:25.183Z,76.71
2018-07-07T06:45:25.163Z,77.48
2018-07-07T06:46:25.153Z,78.59
2018-07-07T06:47:25.137Z,77.73
2018-07-07T06:48:25.128Z,77.06
2018-07-07T06:49:25.119Z,76.71
2018-07-07T06:50:25.100Z,77.29
2018-07-07T06:51:25.097Z,77.19
2018-07-07T06:52:25.078Z,75.52
2018-07-07T06:53:25.068Z,76.32
2018-07-07T06:54:25.057Z,77.29
2018-07-07T06:55:25.040Z,77.58
2018-07-07T06:56:25.035Z,76.71
2018-07-07T06:57:25.019Z,77.48
2018-07-07T06:58:25.004Z,76.90
2018-07-07T06:59:24.992Z,76.84
2018-07-07T07:00:24.982Z,75.88
2018-07-07T07:01:24.966Z,75.49
2018-07-07T07:02:24.950Z,74.73
2018-07-07T07:03:24.993Z,72.71
2018-07-07T07:04:24.932Z,73.09
2018-07-07T07:05:24.914Z,73.03
2018-07-07T07:06:24.941Z,72.42
2018-07-07T07:07:24.900Z,71.75
2018-07-07T07:08:24.877Z,73.38
2018-07-07T07:09:24.869Z,74.54
2018-07-07T07:10:24.861Z,74.54
2018-07-07T07:11:24.854Z,73.96
2018-07-07T07:12:24.830Z,73.51
2018-07-07T07:13:24.826Z,73.96
2018-07-07T07:14:24.807Z,73.61
2018-07-07T07:15:24.793Z,75.73
2018-07-07T07:16:24.778Z,74.67
2018-07-07T07:17:24.769Z,74.48
2018-07-07T07:18:24.758Z,74.09
2018-07-07T07:19:24.744Z,74.38
2018-07-07T07:20:24.741Z,73.99
2018-07-07T07:21:24.717Z,72.84
2018-07-07T07:22:24.709Z,70.92
2018-07-07T07:23:24.694Z,71.30
2018-07-07T07:24:24.691Z,69.18
2018-07-07T07:25:24.669Z,70.53
2018-07-07T07:26:24.657Z,71.43
2018-07-07T07:27:24.642Z,70.28
2018-07-07T07:28:24.631Z,70.37
2018-07-07T07:29:24.634Z,71.14
2018-07-07T07:30:24.618Z,71.53
2018-07-07T07:31:24.617Z,69.41
2018-07-07T07:32:24.587Z,70.76
2018-07-07T07:33:24.576Z,70.41
2018-07-07T07:34:24.592Z,68.74
2018-07-07T07:35:24.561Z,67.90
2018-07-07T07:36:24.536Z,66.46
2018-07-07T07:37:24.526Z,66.17
2018-07-07T07:38:24.513Z,66.75
2018-07-07T07:39:24.521Z,67.94
2018-07-07T07:40:24.496Z,68.13
2018-07-07T07:41:24.486Z,67.55
2018-07-07T07:42:24.467Z,66.01
2018-07-07T07:43:24.471Z,66.78
2018-07-07T07:44:24.452Z,65.91
2018-07-07T07:45:24.439Z,65.91
2018-07-07T07:46:24.421Z,67.46
2018-07-07T07:47:24.419Z,66.69
2018-07-07T07:48:24.396Z,67.94
2018-07-07T07:49:24.387Z,67.65
2018-07-07T07:50:24.376Z,66.82
2018-07-07T07:51:24.368Z,67.97
2018-07-07T07:52:24.358Z,67.20
2018-07-07T07:53:24.349Z,65.95
2018-07-07T07:54:24.332Z,64.15
2018-07-07T07:55:24.338Z,63.37
2018-07-07T07:56:24.313Z,62.79
2018-07-07T07:57:24.298Z,62.12
2018-07-07T07:58:24.287Z,63.37
2018-07-07T07:59:24.281Z,62.22
2018-07-07T08:00:24.267Z,62.86
2018-07-07T08:01:24.268Z,63.34
2018-07-07T08:02:24.245Z,63.54
2018-07-07T08:03:24.232Z,65.37
2018-07-07T08:04:24.226Z,64.50
2018-07-07T08:05:24.213Z,66.08
2018-07-07T08:06:24.197Z,67.75
2018-07-07T08:07:24.185Z,66.01
2018-07-07T08:08:24.177Z,64.08
2018-07-07T08:09:24.164Z,63.21
2018-07-07T08:10:24.156Z,63.21
2018-07-07T08:11:24.146Z,61.57
2018-07-07T08:12:24.145Z,62.18
2018-07-07T08:13:24.120Z,60.22
2018-07-07T08:14:24.117Z,59.74
2018-07-07T08:15:24.103Z,59.64
2018-07-07T08:16:24.092Z,60.51
2018-07-07T08:17:24.088Z,59.16
2018-07-07T08:18:24.078Z,59.13
2018-07-07T08:19:24.057Z,59.32
2018-07-07T08:20:24.047Z,59.25
2018-07-07T08:21:24.037Z,58.68
2018-07-07T08:22:24.030Z,60.89
2018-07-07T08:23:24.018Z,58.97
2018-07-07T08:24:24.014Z,57.71
2018-07-07T08:25:24.007Z,56.46
2018-07-07T08:26:23.987Z,55.20
2018-07-07T08:27:23.974Z,55.23
2018-07-07T08:28:24.001Z,55.90
2018-07-07T08:29:23.953Z,55.81
2018-07-07T08:30:23.957Z,55.33
2018-07-07T08:31:23.940Z,55.01
2018-07-07T08:32:23.928Z,54.24
2018-07-07T08:33:23.922Z,54.82
2018-07-07T08:34:24.048Z,57.06
2018-07-07T08:35:23.894Z,56.96
2018-07-07T08:36:23.940Z,55.33
2018-07-07T08:37:23.870Z,54.84
2018-07-07T08:38:23.976Z,54.55
2018-07-07T08:39:23.858Z,55.26
2018-07-07T08:40:23.851Z,57.57
2018-07-07T08:41:23.833Z,56.22
2018-07-07T08:42:23.876Z,54.68
2018-07-07T08:43:23.813Z,54.51
2018-07-07T08:44:23.855Z,54.90
2018-07-07T08:45:23.793Z,54.03
2018-07-07T08:46:23.808Z,53.45
2018-07-07T08:47:23.779Z,54.03
2018-07-07T08:48:23.808Z,53.45
2018-07-07T08:49:23.835Z,54.32
2018-07-07T08:50:23.751Z,56.45
2018-07-07T08:51:23.741Z,54.51
2018-07-07T08:52:23.732Z,55.02
2018-07-07T08:53:23.709Z,55.02
2018-07-07T08:54:23.754Z,53.57
2018-07-07T08:55:23.698Z,53.09
2018-07-07T08:56:23.689Z,52.99
2018-07-07T08:57:23.678Z,53.38
2018-07-07T08:58:23.660Z,53.31
2018-07-07T08:59:23.652Z,53.41
2018-07-07T09:00:23.647Z,53.21
2018-07-07T09:01:23.639Z,53.04
2018-07-07T09:02:23.625Z,51.50
2018-07-07T09:03:23.613Z,50.52
2018-07-07T09:04:23.606Z,49.65
2018-07-07T09:05:23.593Z,49.05
2018-07-07T09:06:23.585Z,49.44
2018-07-07T09:07:23.584Z,50.43
2018-07-07T09:08:23.567Z,51.50
2018-07-07T09:09:23.554Z,49.07
2018-07-07T09:10:23.550Z,49.65
2018-07-07T09:11:23.548Z,49.37
2018-07-07T09:12:23.528Z,48.88
2018-07-07T09:13:23.518Z,48.49
2018-07-07T09:14:23.537Z,48.30
2018-07-07T09:15:23.500Z,47.79
2018-07-07T09:16:23.487Z,48.20
2018-07-07T09:17:23.493Z,49.46
2018-07-07T09:18:23.478Z,50.33
2018-07-07T09:19:23.470Z,49.95
2018-07-07T09:20:23.468Z,48.30
2018-07-07T09:21:23.489Z,47.72
2018-07-07T09:22:23.436Z,48.88
2018-07-07T09:23:23.433Z,49.17
2018-07-07T09:24:23.421Z,47.72
2018-07-07T09:25:23.416Z,49.00
2018-07-07T09:26:23.407Z,49.19
2018-07-07T09:27:23.388Z,47.72
2018-07-07T09:28:23.387Z,48.22
2018-07-07T09:29:23.373Z,48.90
2018-07-07T09:30:23.375Z,48.22
2018-07-07T09:31:23.359Z,48.90
2018-07-07T09:32:23.346Z,48.64
2018-07-07T09:33:23.335Z,47.36
2018-07-07T09:34:23.329Z,47.06
2018-07-07T09:35:23.324Z,48.35
2018-07-07T09:36:23.307Z,47.36
2018-07-07T09:37:23.304Z,47.16
2018-07-07T09:38:23.290Z,46.70
2018-07-07T09:39:23.284Z,47.67
2018-07-07T09:40:23.274Z,47.96
2018-07-07T09:41:23.270Z,46.60
2018-07-07T09:42:23.256Z,47.47
2018-07-07T09:43:23.246Z,47.30
2018-07-07T09:44:23.252Z,47.60
2018-07-07T09:45:23.227Z,46.92
2018-07-07T09:46:23.231Z,47.02
2018-07-07T09:47:23.212Z,46.14
2018-07-07T09:48:23.210Z,46.04
2018-07-07T09:49:23.197Z,46.45
2018-07-07T09:50:23.188Z,45.37
2018-07-07T09:51:23.178Z,45.07
2018-07-07T09:52:23.175Z,45.75
2018-07-07T09:53:23.166Z,45.17
2018-07-07T09:54:23.158Z,45.47
2018-07-07T09:55:23.147Z,46.04
2018-07-07T09:56:23.187Z,46.04
2018-07-07T09:57:23.127Z,46.22
2018-07-07T09:58:23.116Z,47.19
2018-07-07T09:59:23.117Z,46.31
2018-07-07T10:00:23.101Z,46.80
2018-07-07T10:01:23.097Z,46.60
2018-07-07T10:02:23.088Z,47.40
2018-07-07T10:03:23.076Z,48.76
2018-07-07T10:04:23.067Z,47.79
2018-07-07T10:05:23.065Z,47.13
2018-07-07T10:06:23.059Z,46.75
2018-07-07T10:07:23.073Z,45.87
2018-07-07T10:08:23.042Z,45.97
2018-07-07T10:09:23.030Z,46.07
2018-07-07T10:10:23.018Z,45.78
2018-07-07T10:11:23.011Z,46.16
2018-07-07T10:12:23.007Z,45.58
2018-07-07T10:13:23.029Z,44.90
2018-07-07T10:14:22.992Z,44.32
2018-07-07T10:15:22.983Z,44.71
2018-07-07T10:16:22.979Z,45.97
2018-07-07T10:17:22.968Z,45.89
2018-07-07T10:18:22.971Z,44.95
2018-07-07T10:19:22.959Z,44.37
2018-07-07T10:20:22.998Z,42.93
2018-07-07T10:21:22.936Z,42.64
2018-07-07T10:22:22.970Z,42.15
2018-07-07T10:23:22.923Z,41.77
2018-07-07T10:24:23.015Z,41.98
2018-07-07T10:25:22.905Z,42.29
2018-07-07T10:26:22.997Z,41.24
2018-07-07T10:27:22.894Z,40.78
2018-07-07T10:28:22.886Z,40.39
2018-07-07T10:29:22.887Z,40.60
2018-07-07T10:30:22.875Z,39.45
2018-07-07T10:31:22.868Z,39.86
2018-07-07T10:32:22.868Z,38.59
2018-07-07T10:33:22.856Z,38.98
2018-07-07T10:34:22.849Z,38.07
2018-07-07T10:35:22.847Z,38.83
2018-07-07T10:36:22.840Z,38.34
2018-07-07T10:37:22.837Z,38.15
2018-07-07T10:38:22.822Z,39.41
2018-07-07T10:39:22.816Z,38.83
2018-07-07T10:40:22.807Z,39.29
2018-07-07T10:41:22.804Z,39.10
2018-07-07T10:42:22.795Z,38.42
2018-07-07T10:43:22.788Z,39.12
2018-07-07T10:44:22.782Z,39.70
2018-07-07T10:45:22.861Z,38.64
2018-07-07T10:46:22.764Z,38.83
2018-07-07T10:47:22.797Z,39.41
2018-07-07T10:48:22.768Z,38.05
2018-07-07T10:49:22.748Z,38.52
2018-07-07T10:50:22.737Z,39.00
2018-07-07T10:51:22.737Z,40.17
2018-07-07T10:52:22.724Z,40.75
2018-07-07T10:53:22.723Z,38.71
2018-07-07T10:54:22.710Z,38.50
2018-07-07T10:55:22.710Z,38.42
2018-07-07T10:56:22.694Z,38.31
2018-07-07T10:57:22.749Z,38.31
2018-07-07T10:58:22.687Z,39.37
2018-07-07T10:59:22.677Z,40.15
2018-07-07T11:00:22.667Z,39.67
2018-07-07T11:01:22.712Z,39.47
2018-07-07T11:02:22.659Z,39.67
2018-07-07T11:03:22.689Z,39.57
2018-07-07T11:04:22.760Z,38.98
2018-07-07T11:05:22.637Z,39.36
2018-07-07T11:06:22.628Z,39.55
2018-07-07T11:07:22.674Z,39.43
2018-07-07T11:08:22.619Z,40.29
2018-07-07T11:09:22.608Z,40.58
2018-07-07T11:10:22.602Z,40.97
2018-07-07T11:11:22.592Z,41.26
2018-07-07T11:12:22.592Z,41.08
2018-07-07T11:13:22.576Z,39.90
2018-07-07T11:14:22.573Z,41.28
2018-07-07T11:15:22.572Z,41.77
2018-07-07T11:16:22.563Z,41.18
2018-07-07T11:17:22.548Z,40.62
2018-07-07T11:18:22.543Z,39.45
2018-07-07T11:19:22.538Z,40.33
2018-07-07T11:20:22.541Z,40.23
2018-07-07T11:21:22.530Z,39.65
2018-07-07T11:22:22.521Z,40.42
2018-07-07T11:23:22.519Z,40.62
2018-07-07T11:24:22.499Z,41.59
2018-07-07T11:25:22.496Z,41.49
2018-07-07T11:26:22.489Z,41.20
2018-07-07T11:27:22.481Z,41.78
2018-07-07T11:28:22.468Z,41.10
2018-07-07T11:29:22.476Z,40.25
2018-07-07T11:30:22.471Z,40.44
2018-07-07T11:31:22.454Z,39.55
2018-07-07T11:32:22.449Z,40.11
2018-07-07T11:33:22.439Z,41.10
2018-07-07T11:34:22.433Z,41.69
2018-07-07T11:35:22.425Z,41.39
2018-07-07T11:36:22.487Z,41.01
2018-07-07T11:37:22.405Z,40.73
2018-07-07T11:38:22.409Z,40.64
2018-07-07T11:39:22.393Z,40.15
2018-07-07T11:40:22.403Z,40.64
2018-07-07T11:41:22.380Z,40.52
2018-07-07T11:42:22.457Z,40.72
2018-07-07T11:43:22.375Z,40.33
2018-07-07T11:44:22.361Z,40.33
2018-07-07T11:45:22.347Z,40.62
2018-07-07T11:46:22.349Z,40.93
2018-07-07T11:47:22.340Z,40.64
2018-07-07T11:48:22.338Z,40.73
2018-07-07T11:49:22.335Z,40.44
2018-07-07T11:50:22.409Z,41.13
2018-07-07T11:51:22.326Z,40.73
2018-07-07T11:52:22.303Z,40.93
2018-07-07T11:53:22.300Z,41.22
2018-07-07T11:54:22.294Z,40.27
2018-07-07T11:55:22.290Z,39.00
2018-07-07T11:56:22.282Z,39.18
2018-07-07T11:57:22.365Z,40.66
2018-07-07T11:58:22.270Z,39.88
2018-07-07T11:59:22.256Z,40.08
2018-07-07T12:00:22.246Z,39.10
2018-07-07T12:01:22.237Z,38.03
2018-07-07T12:02:22.237Z,38.32
2018-07-07T12:03:22.225Z,38.44
2018-07-07T12:04:22.263Z,39.12
2018-07-07T12:05:22.220Z,39.10
2018-07-07T12:06:22.257Z,39.20
2018-07-07T12:07:22.198Z,39.98
2018-07-07T12:08:22.253Z,40.37
2018-07-07T12:09:22.184Z,39.98
2018-07-07T12:10:22.192Z,40.95
2018-07-07T12:11:22.305Z,40.66
2018-07-07T12:12:22.167Z,40.75
2018-07-07T12:13:22.158Z,40.47
2018-07-07T12:14:22.158Z,40.85
2018-07-07T12:15:22.150Z,39.69
2018-07-07T12:16:22.144Z,40.47
2018-07-07T12:17:22.208Z,41.14
2018-07-07T12:18:22.128Z,40.75
2018-07-07T12:19:22.126Z,40.17
2018-07-07T12:20:22.116Z,39.86
2018-07-07T12:21:22.106Z,40.42
2018-07-07T12:22:22.099Z,40.73
2018-07-07T12:23:22.098Z,40.83
2018-07-07T12:24:22.084Z,40.91
2018-07-07T12:25:22.084Z,41.69
2018-07-07T12:26:22.078Z,41.13
2018-07-07T12:27:22.067Z,41.51
2018-07-07T12:28:22.057Z,41.24
2018-07-07T12:29:22.054Z,40.66
2018-07-07T12:30:22.049Z,41.14
2018-07-07T12:31:22.068Z,41.06
2018-07-07T12:32:22.034Z,40.78
2018-07-07T12:33:22.024Z,39.51
2018-07-07T12:34:22.022Z,39.80
2018-07-07T12:35:22.017Z,40.50
2018-07-07T12:36:22.008Z,39.92
2018-07-07T12:37:22.000Z,40.31
2018-07-07T12:38:21.994Z,39.24
2018-07-07T12:39:21.984Z,39.92
2018-07-07T12:40:22.000Z,40.70
2018-07-07T12:41:21.985Z,40.01
2018-07-07T12:42:21.975Z,40.09
2018-07-07T12:43:21.961Z,40.11
2018-07-07T12:44:21.955Z,39.51
2018-07-07T12:45:21.948Z,39.10
2018-07-07T12:46:21.939Z,39.96
2018-07-07T12:47:21.949Z,40.81
2018-07-07T12:48:21.928Z,41.78
2018-07-07T12:49:21.922Z,42.10
2018-07-07T12:50:21.915Z,41.42
2018-07-07T12:51:21.916Z,41.61
2018-07-07T12:52:21.899Z,41.63
2018-07-07T12:53:21.899Z,41.93